sensor_id;sensor_type;location;lat;lon;timestamp;pressure;altitude;pressure_sealevel;temperature;humidity
70589;BME280;58152;49.202;18.744;2022-08-16T00:00:29;96610.47;;;22.01;54.38
70589;BME280;58152;49.202;18.744;2022-08-16T00:02:58;96616.81;;;22.00;54.55
70589;BME280;58152;49.202;18.744;2022-08-16T00:05:26;96605.06;;;21.93;54.82
70589;BME280;58152;49.202;18.744;2022-08-16T00:07:52;96606.75;;;21.94;54.75
70589;BME280;58152;49.202;18.744;2022-08-16T00:10:19;96612.78;;;21.96;54.48
70589;BME280;58152;49.202;18.744;2022-08-16T00:12:45;96613.09;;;21.93;54.65
70589;BME280;58152;49.202;18.744;2022-08-16T00:15:15;96610.91;;;21.89;54.66
70589;BME280;58152;49.202;18.744;2022-08-16T00:17:42;96602.69;;;21.82;54.91
70589;BME280;58152;49.202;18.744;2022-08-16T00:20:12;96595.16;;;21.77;54.76
70589;BME280;58152;49.202;18.744;2022-08-16T00:22:39;96607.44;;;21.70;55.10
70589;BME280;58152;49.202;18.744;2022-08-16T00:25:08;96606.78;;;21.68;55.07
70589;BME280;58152;49.202;18.744;2022-08-16T00:27:34;96606.53;;;21.62;54.93
70589;BME280;58152;49.202;18.744;2022-08-16T00:30:00;96601.53;;;21.59;55.15
70589;BME280;58152;49.202;18.744;2022-08-16T00:32:26;96606.53;;;21.62;54.99
70589;BME280;58152;49.202;18.744;2022-08-16T00:34:52;96594.84;;;21.54;55.28
70589;BME280;58152;49.202;18.744;2022-08-16T00:37:19;96608.31;;;21.53;55.34
70589;BME280;58152;49.202;18.744;2022-08-16T00:39:45;96611.69;;;21.55;55.30
70589;BME280;58152;49.202;18.744;2022-08-16T00:42:11;96604.31;;;21.49;55.49
70589;BME280;58152;49.202;18.744;2022-08-16T00:44:38;96601.25;;;21.44;55.73
70589;BME280;58152;49.202;18.744;2022-08-16T00:47:09;96606.56;;;21.44;55.73
70589;BME280;58152;49.202;18.744;2022-08-16T00:49:37;96612.91;;;21.43;55.81
70589;BME280;58152;49.202;18.744;2022-08-16T00:52:02;96609.88;;;21.38;55.84
70589;BME280;58152;49.202;18.744;2022-08-16T00:54:29;96611.88;;;21.36;55.69
70589;BME280;58152;49.202;18.744;2022-08-16T00:56:58;96602.94;;;21.27;55.64
70589;BME280;58152;49.202;18.744;2022-08-16T00:59:29;96614.72;;;21.24;55.96
70589;BME280;58152;49.202;18.744;2022-08-16T01:01:56;96615.72;;;21.23;55.84
70589;BME280;58152;49.202;18.744;2022-08-16T01:04:24;96622.72;;;21.24;56.17
70589;BME280;58152;49.202;18.744;2022-08-16T01:06:50;96612.31;;;21.13;55.96
70589;BME280;58152;49.202;18.744;2022-08-16T01:09:16;96616.94;;;21.11;56.32
70589;BME280;58152;49.202;18.744;2022-08-16T01:11:42;96622.28;;;21.11;56.16
70589;BME280;58152;49.202;18.744;2022-08-16T01:14:27;96617.56;;;21.05;56.72
70589;BME280;58152;49.202;18.744;2022-08-16T01:16:54;96620.22;;;21.05;56.42
70589;BME280;58152;49.202;18.744;2022-08-16T01:19:35;96618.84;;;21.01;56.59
70589;BME280;58152;49.202;18.744;2022-08-16T01:22:46;96630.81;;;20.97;56.33
70589;BME280;58152;49.202;18.744;2022-08-16T01:24:54;96623.41;;;20.91;56.68
70589;BME280;58152;49.202;18.744;2022-08-16T01:27:45;96620.22;;;20.87;57.72
70589;BME280;58152;49.202;18.744;2022-08-16T01:30:15;96627.53;;;20.85;56.87
70589;BME280;58152;49.202;18.744;2022-08-16T01:32:42;96627.81;;;20.82;56.77
70589;BME280;58152;49.202;18.744;2022-08-16T01:35:16;96628.94;;;20.79;57.21
70589;BME280;58152;49.202;18.744;2022-08-16T01:37:47;96633.91;;;20.74;57.07
70589;BME280;58152;49.202;18.744;2022-08-16T01:40:15;96638.16;;;20.67;57.17
70589;BME280;58152;49.202;18.744;2022-08-16T01:42:43;96637.78;;;20.62;57.04
70589;BME280;58152;49.202;18.744;2022-08-16T01:45:08;96641.28;;;20.63;57.21
70589;BME280;58152;49.202;18.744;2022-08-16T01:47:36;96633.03;;;20.56;57.43
70589;BME280;58152;49.202;18.744;2022-08-16T01:50:04;96640.19;;;20.55;57.44
70589;BME280;58152;49.202;18.744;2022-08-16T01:52:31;96636.00;;;20.53;57.53
70589;BME280;58152;49.202;18.744;2022-08-16T01:54:57;96631.97;;;20.49;57.36
70589;BME280;58152;49.202;18.744;2022-08-16T01:57:23;96635.31;;;20.41;57.49
70589;BME280;58152;49.202;18.744;2022-08-16T01:59:49;96626.94;;;20.36;57.52
70589;BME280;58152;49.202;18.744;2022-08-16T02:02:14;96620.91;;;20.34;57.42
70589;BME280;58152;49.202;18.744;2022-08-16T02:04:40;96624.72;;;20.31;57.66
70589;BME280;58152;49.202;18.744;2022-08-16T02:07:05;96626.16;;;20.26;57.47
70589;BME280;58152;49.202;18.744;2022-08-16T02:09:36;96639.03;;;20.30;58.02
70589;BME280;58152;49.202;18.744;2022-08-16T02:12:04;96639.59;;;20.24;57.72
70589;BME280;58152;49.202;18.744;2022-08-16T02:14:31;96651.09;;;20.25;57.82
70589;BME280;58152;49.202;18.744;2022-08-16T02:17:00;96641.84;;;20.19;58.10
70589;BME280;58152;49.202;18.744;2022-08-16T02:19:28;96644.13;;;20.14;58.12
70589;BME280;58152;49.202;18.744;2022-08-16T02:21:54;96643.06;;;20.07;58.47
70589;BME280;58152;49.202;18.744;2022-08-16T02:24:21;96652.72;;;20.08;58.56
70589;BME280;58152;49.202;18.744;2022-08-16T02:26:48;96648.09;;;20.00;58.44
70589;BME280;58152;49.202;18.744;2022-08-16T02:29:14;96651.75;;;19.99;58.19
70589;BME280;58152;49.202;18.744;2022-08-16T02:31:43;96646.69;;;19.96;58.15
70589;BME280;58152;49.202;18.744;2022-08-16T02:34:09;96637.19;;;19.94;58.29
70589;BME280;58152;49.202;18.744;2022-08-16T02:36:34;96639.72;;;19.95;58.53
70589;BME280;58152;49.202;18.744;2022-08-16T02:39:01;96648.94;;;20.01;58.61
70589;BME280;58152;49.202;18.744;2022-08-16T02:41:26;96638.03;;;19.94;58.50
70589;BME280;58152;49.202;18.744;2022-08-16T02:43:52;96646.03;;;19.94;58.57
70589;BME280;58152;49.202;18.744;2022-08-16T02:46:17;96645.31;;;19.92;58.60
70589;BME280;58152;49.202;18.744;2022-08-16T02:48:43;96638.91;;;19.85;58.47
70589;BME280;58152;49.202;18.744;2022-08-16T02:51:09;96641.69;;;19.84;58.49
70589;BME280;58152;49.202;18.744;2022-08-16T02:53:37;96634.28;;;19.77;58.81
70589;BME280;58152;49.202;18.744;2022-08-16T02:56:05;96642.56;;;19.74;58.54
70589;BME280;58152;49.202;18.744;2022-08-16T02:58:31;96645.94;;;19.76;58.80
70589;BME280;58152;49.202;18.744;2022-08-16T03:00:58;96639.78;;;19.76;58.95
70589;BME280;58152;49.202;18.744;2022-08-16T03:03:25;96652.25;;;19.75;59.08
70589;BME280;58152;49.202;18.744;2022-08-16T03:05:51;96648.19;;;19.71;59.06
70589;BME280;58152;49.202;18.744;2022-08-16T03:08:18;96646.06;;;19.65;59.20
70589;BME280;58152;49.202;18.744;2022-08-16T03:10:45;96649.59;;;19.66;59.16
70589;BME280;58152;49.202;18.744;2022-08-16T03:13:14;96650.13;;;19.60;59.32
70589;BME280;58152;49.202;18.744;2022-08-16T03:15:42;96643.28;;;19.57;59.40
70589;BME280;58152;49.202;18.744;2022-08-16T03:18:08;96647.03;;;19.54;59.41
70589;BME280;58152;49.202;18.744;2022-08-16T03:20:34;96655.88;;;19.55;59.57
70589;BME280;58152;49.202;18.744;2022-08-16T03:23:00;96660.63;;;19.51;59.41
70589;BME280;58152;49.202;18.744;2022-08-16T03:25:26;96654.63;;;19.49;59.42
70589;BME280;58152;49.202;18.744;2022-08-16T03:29:13;96658.38;;;19.47;60.10
70589;BME280;58152;49.202;18.744;2022-08-16T03:31:26;96661.63;;;19.41;59.70
70589;BME280;58152;49.202;18.744;2022-08-16T05:39:44;96715.38;;;19.25;63.69
70589;BME280;58152;49.202;18.744;2022-08-16T05:42:10;96712.00;;;19.23;62.98
70589;BME280;58152;49.202;18.744;2022-08-16T05:44:35;96707.41;;;19.25;63.39
70589;BME280;58152;49.202;18.744;2022-08-16T05:51:08;96707.09;;;19.38;63.05
70589;BME280;58152;49.202;18.744;2022-08-16T06:04:03;96717.63;;;19.49;63.20
70589;BME280;58152;49.202;18.744;2022-08-16T06:06:47;96721.69;;;19.53;63.69
70589;BME280;58152;49.202;18.744;2022-08-16T06:09:36;96720.69;;;19.54;65.25
70589;BME280;58152;49.202;18.744;2022-08-16T06:16:28;96709.66;;;19.49;64.15
70589;BME280;58152;49.202;18.744;2022-08-16T06:19:29;96716.22;;;19.54;63.95
70589;BME280;58152;49.202;18.744;2022-08-16T06:29:26;96727.56;;;19.57;64.16
70589;BME280;58152;49.202;18.744;2022-08-16T06:32:04;96727.56;;;19.57;63.69
70589;BME280;58152;49.202;18.744;2022-08-16T06:35:12;96735.41;;;19.58;63.99
70589;BME280;58152;49.202;18.744;2022-08-16T06:44:44;96725.59;;;19.59;63.39
70589;BME280;58152;49.202;18.744;2022-08-16T06:47:28;96729.69;;;19.63;63.73
70589;BME280;58152;49.202;18.744;2022-08-16T06:53:55;96731.38;;;19.64;64.08
70589;BME280;58152;49.202;18.744;2022-08-16T07:03:02;96740.31;;;19.72;63.66
70589;BME280;58152;49.202;18.744;2022-08-16T07:05:29;96748.88;;;19.76;63.36
70589;BME280;58152;49.202;18.744;2022-08-16T07:08:27;96748.47;;;19.80;63.71
70589;BME280;58152;49.202;18.744;2022-08-16T07:10:53;96735.41;;;19.77;63.28
70589;BME280;58152;49.202;18.744;2022-08-16T07:13:19;96745.38;;;19.85;63.02
70589;BME280;58152;49.202;18.744;2022-08-16T07:15:45;96737.50;;;19.84;63.20
70589;BME280;58152;49.202;18.744;2022-08-16T07:18:11;96743.28;;;19.89;63.42
70589;BME280;58152;49.202;18.744;2022-08-16T07:20:42;96733.59;;;19.88;63.37
70589;BME280;58152;49.202;18.744;2022-08-16T07:23:09;96733.72;;;19.96;63.26
70589;BME280;58152;49.202;18.744;2022-08-16T07:25:35;96741.84;;;20.04;63.42
70589;BME280;58152;49.202;18.744;2022-08-16T07:28:00;96739.75;;;20.08;63.65
70589;BME280;58152;49.202;18.744;2022-08-16T07:30:26;96729.78;;;20.10;63.33
70589;BME280;58152;49.202;18.744;2022-08-16T07:32:53;96727.66;;;20.13;63.05
70589;BME280;58152;49.202;18.744;2022-08-16T07:35:20;96736.63;;;20.22;63.47
70589;BME280;58152;49.202;18.744;2022-08-16T07:37:45;96731.41;;;20.20;63.18
70589;BME280;58152;49.202;18.744;2022-08-16T07:40:11;96730.97;;;20.25;63.31
70589;BME280;58152;49.202;18.744;2022-08-16T07:42:37;96741.06;;;20.31;63.01
70589;BME280;58152;49.202;18.744;2022-08-16T07:45:04;96728.44;;;20.33;62.92
70589;BME280;58152;49.202;18.744;2022-08-16T07:47:30;96725.94;;;20.31;63.07
70589;BME280;58152;49.202;18.744;2022-08-16T07:49:55;96734.03;;;20.40;62.92
70589;BME280;58152;49.202;18.744;2022-08-16T07:52:21;96736.28;;;20.44;63.28
70589;BME280;58152;49.202;18.744;2022-08-16T07:54:47;96732.22;;;20.50;63.34
70589;BME280;58152;49.202;18.744;2022-08-16T07:57:12;96727.56;;;20.52;63.07
70589;BME280;58152;49.202;18.744;2022-08-16T07:59:38;96734.00;;;20.59;63.20
70589;BME280;58152;49.202;18.744;2022-08-16T08:02:04;96731.88;;;20.63;62.90
70589;BME280;58152;49.202;18.744;2022-08-16T08:04:29;96723.06;;;20.62;62.98
70589;BME280;58152;49.202;18.744;2022-08-16T08:06:57;96729.47;;;20.69;62.71
70589;BME280;58152;49.202;18.744;2022-08-16T08:09:26;96734.50;;;20.72;62.58
70589;BME280;58152;49.202;18.744;2022-08-16T08:11:54;96734.06;;;20.77;62.76
70589;BME280;58152;49.202;18.744;2022-08-16T08:14:25;96723.53;;;20.75;62.92
70589;BME280;58152;49.202;18.744;2022-08-16T08:19:35;96720.53;;;20.88;62.70
70589;BME280;58152;49.202;18.744;2022-08-16T08:22:02;96707.34;;;20.87;62.65
70589;BME280;58152;49.202;18.744;2022-08-16T08:24:28;96720.63;;;20.96;62.55
70589;BME280;58152;49.202;18.744;2022-08-16T08:26:59;96717.13;;;20.96;62.60
70589;BME280;58152;49.202;18.744;2022-08-16T08:29:31;96731.22;;;21.06;62.70
70589;BME280;58152;49.202;18.744;2022-08-16T08:32:17;96721.41;;;21.06;62.44
70589;BME280;58152;49.202;18.744;2022-08-16T08:34:46;96719.28;;;21.10;62.63
70589;BME280;58152;49.202;18.744;2022-08-16T08:37:12;96726.66;;;21.16;62.61
70589;BME280;58152;49.202;18.744;2022-08-16T08:39:39;96728.59;;;21.24;62.90
70589;BME280;58152;49.202;18.744;2022-08-16T08:42:06;96733.06;;;21.33;62.83
70589;BME280;58152;49.202;18.744;2022-08-16T08:44:32;96733.31;;;21.40;62.86
70589;BME280;58152;49.202;18.744;2022-08-16T08:47:09;96732.38;;;21.49;63.19
70589;BME280;58152;49.202;18.744;2022-08-16T08:49:35;96718.06;;;21.50;62.67
70589;BME280;58152;49.202;18.744;2022-08-16T08:52:03;96724.81;;;21.62;62.31
70589;BME280;58152;49.202;18.744;2022-08-16T08:54:28;96713.69;;;21.67;62.56
70589;BME280;58152;49.202;18.744;2022-08-16T08:56:55;96717.41;;;21.74;62.86
70589;BME280;58152;49.202;18.744;2022-08-16T08:59:22;96713.44;;;21.78;62.61
70589;BME280;58152;49.202;18.744;2022-08-16T09:01:48;96712.00;;;21.83;62.22
70589;BME280;58152;49.202;18.744;2022-08-16T09:04:14;96705.81;;;21.83;61.80
70589;BME280;58152;49.202;18.744;2022-08-16T09:06:39;96706.72;;;21.92;61.83
70589;BME280;58152;49.202;18.744;2022-08-16T09:09:06;96703.56;;;21.96;61.43
70589;BME280;58152;49.202;18.744;2022-08-16T09:11:34;96701.56;;;21.98;60.96
70589;BME280;58152;49.202;18.744;2022-08-16T09:14:01;96709.13;;;22.03;61.04
70589;BME280;58152;49.202;18.744;2022-08-16T09:16:26;96709.47;;;22.08;60.76
70589;BME280;58152;49.202;18.744;2022-08-16T09:18:52;96716.75;;;22.16;60.72
70589;BME280;58152;49.202;18.744;2022-08-16T09:21:17;96709.59;;;22.16;60.51
70589;BME280;58152;49.202;18.744;2022-08-16T09:24:00;96721.00;;;22.26;61.27
70589;BME280;58152;49.202;18.744;2022-08-16T09:26:35;96720.84;;;22.28;61.48
70589;BME280;58152;49.202;18.744;2022-08-16T09:29:05;96711.84;;;22.29;61.87
70589;BME280;58152;49.202;18.744;2022-08-16T09:31:33;96714.19;;;22.32;61.79
70589;BME280;58152;49.202;18.744;2022-08-16T09:33:58;96718.72;;;22.40;61.74
70589;BME280;58152;49.202;18.744;2022-08-16T09:36:26;96710.88;;;22.38;61.65
70589;BME280;58152;49.202;18.744;2022-08-16T09:38:53;96713.63;;;22.46;61.88
70589;BME280;58152;49.202;18.744;2022-08-16T09:41:19;96703.06;;;22.45;61.98
70589;BME280;58152;49.202;18.744;2022-08-16T09:43:44;96705.25;;;22.49;62.16
70589;BME280;58152;49.202;18.744;2022-08-16T09:46:10;96705.63;;;22.54;62.27
70589;BME280;58152;49.202;18.744;2022-08-16T09:48:36;96696.63;;;22.55;62.50
70589;BME280;58152;49.202;18.744;2022-08-16T09:51:07;96696.66;;;22.64;61.85
70589;BME280;58152;49.202;18.744;2022-08-16T09:53:34;96691.16;;;22.65;61.62
70589;BME280;58152;49.202;18.744;2022-08-16T09:56:01;96682.81;;;22.68;61.44
70589;BME280;58152;49.202;18.744;2022-08-16T09:58:28;96682.34;;;22.81;61.64
70589;BME280;58152;49.202;18.744;2022-08-16T10:00:54;96693.56;;;22.84;61.49
70589;BME280;58152;49.202;18.744;2022-08-16T10:03:20;96689.94;;;22.94;60.88
70589;BME280;58152;49.202;18.744;2022-08-16T10:05:47;96681.63;;;23.05;60.60
70589;BME280;58152;49.202;18.744;2022-08-16T10:08:12;96683.81;;;23.18;60.14
70589;BME280;58152;49.202;18.744;2022-08-16T10:10:38;96674.31;;;23.31;59.91
70589;BME280;58152;49.202;18.744;2022-08-16T10:13:27;96689.56;;;23.55;59.78
70589;BME280;58152;49.202;18.744;2022-08-16T10:15:52;96686.06;;;23.71;59.65
70589;BME280;58152;49.202;18.744;2022-08-16T10:18:25;96693.25;;;23.95;59.05
70589;BME280;58152;49.202;18.744;2022-08-16T10:20:52;96689.38;;;24.14;58.89
70589;BME280;58152;49.202;18.744;2022-08-16T10:23:18;96684.66;;;24.32;58.00
70589;BME280;58152;49.202;18.744;2022-08-16T10:25:45;96674.09;;;24.47;57.65
70589;BME280;58152;49.202;18.744;2022-08-16T10:28:11;96676.19;;;24.68;57.11
70589;BME280;58152;49.202;18.744;2022-08-16T10:30:38;96669.56;;;24.87;56.42
70589;BME280;58152;49.202;18.744;2022-08-16T10:33:08;96671.34;;;25.03;55.73
70589;BME280;58152;49.202;18.744;2022-08-16T10:35:34;96681.47;;;25.24;54.95
70589;BME280;58152;49.202;18.744;2022-08-16T10:37:59;96663.59;;;25.39;54.95
70589;BME280;58152;49.202;18.744;2022-08-16T10:40:25;96668.00;;;25.55;55.03
70589;BME280;58152;49.202;18.744;2022-08-16T10:42:50;96670.19;;;25.74;54.84
70589;BME280;58152;49.202;18.744;2022-08-16T10:45:16;96665.34;;;25.93;54.50
70589;BME280;58152;49.202;18.744;2022-08-16T10:47:42;96672.72;;;26.14;53.77
70589;BME280;58152;49.202;18.744;2022-08-16T10:50:09;96661.81;;;26.30;53.79
70589;BME280;58152;49.202;18.744;2022-08-16T10:52:34;96656.47;;;26.45;52.91
70589;BME280;58152;49.202;18.744;2022-08-16T10:55:00;96657.28;;;26.60;52.35
70589;BME280;58152;49.202;18.744;2022-08-16T10:57:27;96652.72;;;26.75;52.29
70589;BME280;58152;49.202;18.744;2022-08-16T10:59:53;96652.06;;;26.88;51.89
70589;BME280;58152;49.202;18.744;2022-08-16T11:02:20;96646.00;;;27.01;50.39
70589;BME280;58152;49.202;18.744;2022-08-16T11:04:46;96648.06;;;27.14;50.13
70589;BME280;58152;49.202;18.744;2022-08-16T11:07:12;96651.31;;;27.30;48.75
70589;BME280;58152;49.202;18.744;2022-08-16T11:09:38;96642.75;;;27.42;48.52
70589;BME280;58152;49.202;18.744;2022-08-16T11:12:04;96646.84;;;27.59;47.97
70589;BME280;58152;49.202;18.744;2022-08-16T11:14:31;96636.38;;;27.71;48.37
70589;BME280;58152;49.202;18.744;2022-08-16T11:17:02;96634.91;;;27.90;48.24
70589;BME280;58152;49.202;18.744;2022-08-16T11:19:29;96642.72;;;28.06;47.96
70589;BME280;58152;49.202;18.744;2022-08-16T11:21:55;96648.22;;;28.26;47.33
70589;BME280;58152;49.202;18.744;2022-08-16T11:24:21;96640.47;;;28.38;46.12
70589;BME280;58152;49.202;18.744;2022-08-16T11:26:47;96651.56;;;28.56;45.25
70589;BME280;58152;49.202;18.744;2022-08-16T11:29:14;96643.09;;;28.66;44.97
70589;BME280;58152;49.202;18.744;2022-08-16T11:31:40;96656.28;;;28.82;45.06
70589;BME280;58152;49.202;18.744;2022-08-16T11:34:06;96642.19;;;28.93;44.10
70589;BME280;58152;49.202;18.744;2022-08-16T11:36:31;96658.25;;;29.08;43.84
70589;BME280;58152;49.202;18.744;2022-08-16T11:38:58;96671.41;;;29.24;42.77
70589;BME280;58152;49.202;18.744;2022-08-16T11:41:26;96671.22;;;29.32;43.24
70589;BME280;58152;49.202;18.744;2022-08-16T11:43:52;96676.03;;;29.44;43.27
70589;BME280;58152;49.202;18.744;2022-08-16T11:46:18;96664.38;;;29.43;42.67
70589;BME280;58152;49.202;18.744;2022-08-16T11:48:45;96670.06;;;29.61;42.01
70589;BME280;58152;49.202;18.744;2022-08-16T11:51:11;96665.28;;;29.57;41.24
70589;BME280;58152;49.202;18.744;2022-08-16T11:53:37;96664.16;;;29.45;40.63
70589;BME280;58152;49.202;18.744;2022-08-16T11:56:03;96658.41;;;29.68;40.53
70589;BME280;58152;49.202;18.744;2022-08-16T11:58:31;96658.66;;;29.79;39.92
70589;BME280;58152;49.202;18.744;2022-08-16T12:00:58;96656.34;;;29.63;39.82
70589;BME280;58152;49.202;18.744;2022-08-16T12:03:27;96654.47;;;29.70;39.18
70589;BME280;58152;49.202;18.744;2022-08-16T12:05:53;96647.63;;;29.61;39.34
70589;BME280;58152;49.202;18.744;2022-08-16T12:08:20;96649.38;;;29.21;39.31
70589;BME280;58152;49.202;18.744;2022-08-16T12:10:46;96655.25;;;28.90;39.51
70589;BME280;58152;49.202;18.744;2022-08-16T12:13:12;96643.94;;;28.66;39.46
70589;BME280;58152;49.202;18.744;2022-08-16T12:15:38;96649.03;;;28.48;40.03
70589;BME280;58152;49.202;18.744;2022-08-16T12:18:05;96657.75;;;28.50;40.97
70589;BME280;58152;49.202;18.744;2022-08-16T12:20:34;96657.41;;;28.66;41.63
70589;BME280;58152;49.202;18.744;2022-08-16T12:23:00;96666.56;;;28.65;42.18
70589;BME280;58152;49.202;18.744;2022-08-16T12:25:29;96669.34;;;28.85;42.38
70589;BME280;58152;49.202;18.744;2022-08-16T12:27:55;96660.50;;;28.56;42.75
70589;BME280;58152;49.202;18.744;2022-08-16T12:30:25;96665.59;;;28.45;42.87
70589;BME280;58152;49.202;18.744;2022-08-16T12:32:55;96665.13;;;28.34;43.69
70589;BME280;58152;49.202;18.744;2022-08-16T12:35:21;96664.22;;;28.27;43.91
70589;BME280;58152;49.202;18.744;2022-08-16T12:37:48;96670.16;;;28.16;44.26
70589;BME280;58152;49.202;18.744;2022-08-16T12:40:17;96674.47;;;28.10;44.89
70589;BME280;58152;49.202;18.744;2022-08-16T12:42:48;96677.88;;;27.98;45.10
70589;BME280;58152;49.202;18.744;2022-08-16T12:45:17;96678.59;;;27.85;44.79
70589;BME280;58152;49.202;18.744;2022-08-16T12:47:43;96681.63;;;27.75;44.93
70589;BME280;58152;49.202;18.744;2022-08-16T12:50:27;96680.06;;;27.66;45.08
70589;BME280;58152;49.202;18.744;2022-08-16T12:52:53;96685.19;;;27.61;45.13
70589;BME280;58152;49.202;18.744;2022-08-16T12:55:19;96684.69;;;27.51;45.59
70589;BME280;58152;49.202;18.744;2022-08-16T12:57:46;96693.97;;;27.48;45.68
70589;BME280;58152;49.202;18.744;2022-08-16T13:00:15;96687.50;;;27.43;46.09
70589;BME280;58152;49.202;18.744;2022-08-16T13:02:44;96686.63;;;27.35;45.68
70589;BME280;58152;49.202;18.744;2022-08-16T13:05:11;96694.69;;;27.35;46.01
70589;BME280;58152;49.202;18.744;2022-08-16T13:07:38;96695.06;;;27.32;46.21
70589;BME280;58152;49.202;18.744;2022-08-16T13:10:05;96685.69;;;27.28;45.94
70589;BME280;58152;49.202;18.744;2022-08-16T13:12:38;96694.41;;;27.30;46.26
70589;BME280;58152;49.202;18.744;2022-08-16T13:15:06;96698.31;;;27.28;46.38
70589;BME280;58152;49.202;18.744;2022-08-16T13:17:36;96706.66;;;27.33;46.91
70589;BME280;58152;49.202;18.744;2022-08-16T13:20:05;96709.00;;;27.36;47.44
70589;BME280;58152;49.202;18.744;2022-08-16T13:22:31;96709.88;;;27.43;47.09
70589;BME280;58152;49.202;18.744;2022-08-16T13:24:56;96710.78;;;27.50;47.32
70589;BME280;58152;49.202;18.744;2022-08-16T13:27:22;96704.19;;;27.53;47.34
70589;BME280;58152;49.202;18.744;2022-08-16T13:29:48;96703.19;;;27.54;47.44
70589;BME280;58152;49.202;18.744;2022-08-16T13:32:13;96718.38;;;27.61;46.42
70589;BME280;58152;49.202;18.744;2022-08-16T13:34:39;96721.25;;;27.60;46.09
70589;BME280;58152;49.202;18.744;2022-08-16T13:37:04;96713.19;;;27.60;46.11
70589;BME280;58152;49.202;18.744;2022-08-16T13:39:30;96719.19;;;27.62;46.17
70589;BME280;58152;49.202;18.744;2022-08-16T13:41:57;96718.81;;;27.65;46.03
70589;BME280;58152;49.202;18.744;2022-08-16T13:44:26;96711.50;;;27.59;46.15
70589;BME280;58152;49.202;18.744;2022-08-16T13:46:52;96720.44;;;27.59;46.57
70589;BME280;58152;49.202;18.744;2022-08-16T13:49:18;96722.47;;;27.57;46.44
70589;BME280;58152;49.202;18.744;2022-08-16T13:51:43;96725.16;;;27.57;46.01
70589;BME280;58152;49.202;18.744;2022-08-16T13:54:09;96723.69;;;27.55;46.34
70589;BME280;58152;49.202;18.744;2022-08-16T13:56:36;96727.84;;;27.57;46.09
70589;BME280;58152;49.202;18.744;2022-08-16T13:59:02;96720.81;;;27.56;46.46
70589;BME280;58152;49.202;18.744;2022-08-16T14:01:28;96726.28;;;27.63;46.50
70589;BME280;58152;49.202;18.744;2022-08-16T14:03:54;96719.44;;;27.67;46.53
70589;BME280;58152;49.202;18.744;2022-08-16T14:06:19;96717.78;;;27.66;46.74
70589;BME280;58152;49.202;18.744;2022-08-16T14:08:45;96716.03;;;27.73;46.68
70589;BME280;58152;49.202;18.744;2022-08-16T14:11:11;96707.16;;;27.79;45.96
70589;BME280;58152;49.202;18.744;2022-08-16T14:13:37;96700.16;;;27.85;45.74
70589;BME280;58152;49.202;18.744;2022-08-16T14:16:03;96715.00;;;27.96;45.78
70589;BME280;58152;49.202;18.744;2022-08-16T14:18:29;96708.00;;;28.01;45.52
70589;BME280;58152;49.202;18.744;2022-08-16T14:20:54;96707.22;;;28.07;44.86
70589;BME280;58152;49.202;18.744;2022-08-16T14:23:20;96701.38;;;28.04;44.61
70589;BME280;58152;49.202;18.744;2022-08-16T14:25:46;96713.00;;;28.04;44.25
70589;BME280;58152;49.202;18.744;2022-08-16T14:28:11;96721.69;;;28.00;44.51
70589;BME280;58152;49.202;18.744;2022-08-16T14:30:37;96733.22;;;27.94;44.24
70589;BME280;58152;49.202;18.744;2022-08-16T14:33:03;96734.25;;;27.93;44.22
70589;BME280;58152;49.202;18.744;2022-08-16T14:35:30;96722.63;;;27.92;44.61
70589;BME280;58152;49.202;18.744;2022-08-16T14:37:56;96715.97;;;27.88;44.21
70589;BME280;58152;49.202;18.744;2022-08-16T14:40:22;96717.63;;;27.89;44.27
70589;BME280;58152;49.202;18.744;2022-08-16T14:42:49;96720.78;;;27.93;44.36
70589;BME280;58152;49.202;18.744;2022-08-16T14:45:18;96721.22;;;27.96;44.37
70589;BME280;58152;49.202;18.744;2022-08-16T14:47:44;96713.31;;;27.95;44.22
70589;BME280;58152;49.202;18.744;2022-08-16T14:50:16;96708.56;;;27.97;43.60
70589;BME280;58152;49.202;18.744;2022-08-16T14:53:00;96707.34;;;27.99;43.05
70589;BME280;58152;49.202;18.744;2022-08-16T14:55:28;96702.00;;;28.27;43.45
70589;BME280;58152;49.202;18.744;2022-08-16T14:57:54;96706.88;;;28.45;43.28
70589;BME280;58152;49.202;18.744;2022-08-16T15:00:21;96709.56;;;28.39;43.07
70589;BME280;58152;49.202;18.744;2022-08-16T15:02:52;96720.66;;;28.50;42.92
70589;BME280;58152;49.202;18.744;2022-08-16T15:05:20;96716.09;;;28.51;43.80
70589;BME280;58152;49.202;18.744;2022-08-16T15:07:46;96711.09;;;28.54;43.57
70589;BME280;58152;49.202;18.744;2022-08-16T15:10:11;96712.63;;;28.98;43.84
70589;BME280;58152;49.202;18.744;2022-08-16T15:12:37;96707.91;;;29.07;44.62
70589;BME280;58152;49.202;18.744;2022-08-16T15:15:08;96711.75;;;28.91;44.78
70589;BME280;58152;49.202;18.744;2022-08-16T15:17:34;96722.91;;;29.23;44.57
70589;BME280;58152;49.202;18.744;2022-08-16T15:20:00;96715.91;;;28.94;44.95
70589;BME280;58152;49.202;18.744;2022-08-16T15:22:31;96719.53;;;28.73;45.59
70589;BME280;58152;49.202;18.744;2022-08-16T15:24:59;96730.63;;;28.56;45.97
70589;BME280;58152;49.202;18.744;2022-08-16T15:27:29;96732.78;;;28.40;46.52
70589;BME280;58152;49.202;18.744;2022-08-16T15:30:18;96736.84;;;28.29;47.08
70589;BME280;58152;49.202;18.744;2022-08-16T15:32:48;96736.28;;;28.12;47.59
70589;BME280;58152;49.202;18.744;2022-08-16T15:35:14;96745.38;;;28.04;47.29
70589;BME280;58152;49.202;18.744;2022-08-16T15:37:40;96762.50;;;27.97;48.02
70589;BME280;58152;49.202;18.744;2022-08-16T15:40:16;96763.84;;;27.86;48.22
70589;BME280;58152;49.202;18.744;2022-08-16T15:42:50;96773.72;;;27.79;48.88
70589;BME280;58152;49.202;18.744;2022-08-16T15:45:17;96790.78;;;27.71;48.95
70589;BME280;58152;49.202;18.744;2022-08-16T15:48:01;96783.03;;;27.61;48.93